Time;durP1;ratioP1;P1;durP2;ratioP2;P2;SDS_P1;SDS_P2;PMS_P1;PMS_P2;Temp;Humidity;BMP_temperature;BMP_pressure;BME280_temperature;BME280_humidity;BME280_pressure;Samples;Min_cycle;Max_cycle;Signal;HPM_P1;HPM_P2
2022/04/14 00:01:20;;;;;;;1.92;1.08;;;18.30;54.10;;;;;;5092270;28;20552;-69
2022/04/14 00:03:49;;;;;;;1.60;0.90;;;18.20;54.00;;;;;;5093665;28;20043;-70
2022/04/14 00:06:15;;;;;;;3.67;1.00;;;18.20;54.10;;;;;;5092569;28;20036;-68
2022/04/14 00:08:40;;;;;;;2.00;1.00;;;18.20;54.00;;;;;;5093415;28;20361;-68
2022/04/14 00:11:06;;;;;;;1.30;0.85;;;18.20;54.10;;;;;;5092242;28;20430;-68
2022/04/14 00:13:32;;;;;;;1.80;0.73;;;18.20;54.00;;;;;;5092112;28;20118;-68
2022/04/14 00:15:57;;;;;;;1.55;0.80;;;18.20;54.10;;;;;;5092129;28;20044;-68
2022/04/14 00:18:23;;;;;;;2.17;1.02;;;18.20;54.00;;;;;;5092203;28;20048;-66
2022/04/14 00:20:49;;;;;;;1.83;0.82;;;18.20;54.10;;;;;;5093304;28;20529;-69
2022/04/14 00:23:14;;;;;;;2.55;0.90;;;18.10;54.00;;;;;;5091926;28;20475;-70
2022/04/14 00:25:40;;;;;;;2.45;1.55;;;18.10;54.00;;;;;;5091955;28;20047;-68
2022/04/14 00:28:05;;;;;;;1.27;0.63;;;18.10;54.00;;;;;;5092608;28;20064;-68
2022/04/14 00:30:31;;;;;;;1.75;1.00;;;18.10;54.00;;;;;;5092869;28;20085;-70
2022/04/14 00:32:59;;;;;;;1.60;0.80;;;18.10;54.00;;;;;;5092203;28;20408;-68
2022/04/14 00:35:25;;;;;;;1.60;1.17;;;18.10;54.00;;;;;;5092035;28;20040;-68
2022/04/14 00:37:51;;;;;;;1.98;1.08;;;18.10;54.00;;;;;;5092851;28;20445;-69
2022/04/14 00:40:16;;;;;;;1.98;0.95;;;18.10;54.10;;;;;;5091712;28;20051;-68
2022/04/14 00:42:42;;;;;;;1.20;0.90;;;18.10;54.10;;;;;;5074906;28;20036;-68
2022/04/14 00:45:09;;;;;;;2.17;1.40;;;18.10;54.10;;;;;;5091508;28;20046;-69
2022/04/14 00:47:36;;;;;;;1.75;1.10;;;18.10;54.10;;;;;;5092511;28;20554;-68
2022/04/14 00:50:03;;;;;;;1.45;0.85;;;18.10;54.10;;;;;;5091372;28;20043;-68
2022/04/14 00:52:28;;;;;;;2.58;1.00;;;18.10;54.10;;;;;;5091529;28;20046;-69
2022/04/14 00:54:54;;;;;;;2.13;1.30;;;18.00;54.10;;;;;;5091618;28;20032;-72
2022/04/14 00:57:20;;;;;;;2.35;1.20;;;18.00;54.10;;;;;;5091679;28;20145;-68
2022/04/14 00:59:45;;;;;;;2.13;1.05;;;18.00;54.10;;;;;;5091504;28;20040;-66
2022/04/14 01:02:11;;;;;;;2.03;0.98;;;18.00;54.10;;;;;;5091493;28;20472;-65
2022/04/14 01:04:38;;;;;;;1.40;0.98;;;18.00;54.10;;;;;;5091039;28;20480;-68
2022/04/14 01:07:07;;;;;;;2.20;1.05;;;18.00;54.10;;;;;;5091553;28;20050;-69
2022/04/14 01:09:33;;;;;;;2.80;1.25;;;18.00;54.10;;;;;;5092585;28;20047;-68
2022/04/14 01:12:03;;;;;;;1.90;1.10;;;18.00;54.10;;;;;;5092466;28;20044;-69
2022/04/14 01:14:34;;;;;;;2.25;1.48;;;18.00;54.10;;;;;;5091116;28;20101;-68
2022/04/14 01:17:03;;;;;;;2.85;1.40;;;18.00;54.10;;;;;;5091301;28;20040;-68
2022/04/14 01:19:29;;;;;;;2.50;1.50;;;18.00;54.10;;;;;;5090932;28;20531;-67
2022/04/14 01:24:37;;;;;;;2.15;1.17;;;17.90;54.10;;;;;;5130218;27;20806;-65
2022/04/14 01:27:03;;;;;;;1.75;1.45;;;18.00;54.20;;;;;;5130285;27;20387;-67
2022/04/14 01:29:29;;;;;;;2.42;1.65;;;18.00;54.20;;;;;;5130132;27;20044;-69
2022/04/14 01:31:56;;;;;;;2.55;1.40;;;18.00;54.20;;;;;;5128884;28;20039;-67
2022/04/14 01:34:22;;;;;;;3.80;2.13;;;18.00;54.20;;;;;;5129078;27;20039;-68
2022/04/14 01:36:48;;;;;;;1.70;1.23;;;17.90;54.20;;;;;;5128831;27;20096;-67
2022/04/14 01:39:14;;;;;;;2.35;1.33;;;18.00;54.20;;;;;;5129075;28;20502;-63
2022/04/14 01:41:41;;;;;;;1.60;1.38;;;17.90;54.10;;;;;;5129000;28;20085;-63
2022/04/14 01:44:07;;;;;;;2.35;1.48;;;17.90;54.20;;;;;;5128671;27;20126;-67
2022/04/14 01:46:33;;;;;;;2.85;1.50;;;17.90;54.20;;;;;;5128783;28;20391;-67
2022/04/14 01:48:59;;;;;;;2.38;1.05;;;17.90;54.20;;;;;;5128748;28;20047;-66
2022/04/14 01:51:26;;;;;;;2.85;1.70;;;17.90;54.20;;;;;;5128982;28;20078;-69
2022/04/14 01:53:52;;;;;;;2.13;1.48;;;17.90;54.20;;;;;;5129884;27;20092;-67
2022/04/14 01:56:18;;;;;;;2.03;1.42;;;17.90;54.10;;;;;;5128661;27;20472;-67
2022/04/14 01:58:44;;;;;;;3.33;1.98;;;17.90;54.20;;;;;;5129505;28;20067;-67
2022/04/14 02:01:10;;;;;;;3.03;1.67;;;17.90;54.20;;;;;;5130112;27;20031;-67
2022/04/14 02:03:36;;;;;;;2.05;1.70;;;17.80;54.10;;;;;;5129834;27;20091;-67
2022/04/14 02:06:03;;;;;;;2.65;1.58;;;17.80;54.10;;;;;;5128416;28;20550;-63
2022/04/14 02:08:31;;;;;;;3.63;1.90;;;17.80;54.10;;;;;;5128546;27;20387;-67
2022/04/14 02:10:57;;;;;;;1.70;1.30;;;17.80;54.10;;;;;;5128469;28;20382;-63
2022/04/14 02:13:23;;;;;;;3.03;1.30;;;17.80;54.20;;;;;;5128365;28;20043;-63
2022/04/14 02:15:51;;;;;;;2.35;1.42;;;17.80;54.10;;;;;;5127894;28;20120;-67
2022/04/14 02:18:17;;;;;;;2.70;1.83;;;17.80;54.20;;;;;;5127978;27;20043;-64
2022/04/14 02:20:43;;;;;;;2.42;2.00;;;17.80;54.20;;;;;;5128266;28;20188;-64
2022/04/14 02:23:08;;;;;;;2.33;1.15;;;17.80;54.20;;;;;;5127630;28;20477;-67
2022/04/14 02:25:34;;;;;;;3.00;1.75;;;17.80;54.20;;;;;;5128189;28;20039;-67
2022/04/14 02:27:59;;;;;;;2.45;1.38;;;17.80;54.20;;;;;;5129065;28;20712;-67
2022/04/14 02:30:25;;;;;;;1.77;0.90;;;17.80;54.30;;;;;;5127763;28;20036;-67
2022/04/14 02:32:51;;;;;;;1.98;0.90;;;17.80;54.20;;;;;;5127593;28;20051;-64
2022/04/14 02:35:16;;;;;;;1.98;1.00;;;17.90;54.10;;;;;;5117982;28;20040;-67
2022/04/14 02:37:42;;;;;;;1.92;0.85;;;18.10;53.90;;;;;;5115545;28;20395;-66
2022/04/14 02:40:11;;;;;;;2.60;1.02;;;18.30;53.50;;;;;;5114223;28;20276;-67
2022/04/14 02:42:36;;;;;;;1.45;0.60;;;18.50;53.10;;;;;;5114937;28;20082;-64
2022/04/14 02:45:02;;;;;;;1.42;0.70;;;18.80;52.50;;;;;;5113862;28;20083;-67
2022/04/14 02:47:29;;;;;;;2.25;0.60;;;19.20;51.90;;;;;;5113697;28;20080;-67
2022/04/14 02:49:55;;;;;;;1.27;0.47;;;19.50;51.20;;;;;;5115096;28;20102;-67
2022/04/14 02:52:21;;;;;;;1.42;0.50;;;19.80;50.50;;;;;;5114941;28;20040;-67
2022/04/14 02:54:46;;;;;;;2.10;0.63;;;20.10;49.90;;;;;;5113859;28;20127;-67
2022/04/14 02:57:12;;;;;;;0.88;0.52;;;20.40;49.40;;;;;;5113178;28;20494;-67
2022/04/14 02:59:37;;;;;;;1.08;0.50;;;20.60;48.80;;;;;;5113424;28;20071;-63
2022/04/14 03:02:04;;;;;;;1.35;0.50;;;20.90;48.30;;;;;;5113089;28;20101;-65
2022/04/14 03:04:32;;;;;;;0.70;0.30;;;21.10;47.90;;;;;;5114846;28;20107;-67
2022/04/14 03:06:58;;;;;;;2.53;0.50;;;21.30;47.40;;;;;;5113475;28;20040;-67
2022/04/14 03:09:24;;;;;;;0.80;0.40;;;21.40;47.00;;;;;;5113794;28;20051;-67
2022/04/14 03:11:49;;;;;;;1.35;0.40;;;21.50;46.70;;;;;;5113279;28;20051;-67
2022/04/14 03:14:15;;;;;;;1.67;0.60;;;21.60;46.50;;;;;;5114708;28;20118;-63
2022/04/14 03:16:41;;;;;;;0.70;0.30;;;21.70;46.30;;;;;;5114438;28;20046;-64
2022/04/14 03:19:06;;;;;;;1.20;0.45;;;21.70;46.10;;;;;;5113464;28;20051;-67
2022/04/14 03:21:32;;;;;;;1.10;0.50;;;21.70;46.00;;;;;;5113385;28;20035;-67
2022/04/14 03:23:58;;;;;;;1.30;0.30;;;21.80;45.90;;;;;;5114066;28;20514;-64
2022/04/14 03:26:23;;;;;;;1.00;0.50;;;21.80;45.70;;;;;;5114419;28;20044;-69
2022/04/14 03:28:49;;;;;;;2.05;0.57;;;21.80;45.70;;;;;;5113026;28;20036;-67
2022/04/14 03:31:15;;;;;;;2.03;0.70;;;21.90;45.60;;;;;;5114249;28;20035;-64
2022/04/14 03:33:40;;;;;;;0.60;0.30;;;21.90;45.50;;;;;;5112831;28;20140;-67
2022/04/14 03:36:06;;;;;;;1.23;0.45;;;21.90;45.40;;;;;;5112892;28;20043;-65
2022/04/14 03:38:32;;;;;;;0.88;0.38;;;22.00;45.30;;;;;;5112755;28;20078;-67
2022/04/14 03:41:02;;;;;;;1.33;0.30;;;22.10;45.20;;;;;;5114183;28;20049;-66
2022/04/14 03:43:31;;;;;;;;;;;22.10;45.10;;;;;;5114637;28;20408;-67
2022/04/14 03:45:57;;;;;;;0.80;0.30;;;22.10;45.10;;;;;;5112901;28;20025;-63
2022/04/14 03:48:22;;;;;;;1.23;0.45;;;22.10;44.90;;;;;;5113677;28;20711;-67
2022/04/14 03:50:48;;;;;;;1.13;0.38;;;22.20;44.80;;;;;;5114014;28;20027;-67
2022/04/14 03:53:14;;;;;;;1.35;0.60;;;22.20;44.60;;;;;;5112584;28;20090;-67
2022/04/14 03:55:39;;;;;;;0.73;0.40;;;22.30;44.60;;;;;;5112391;28;20047;-67
2022/04/14 03:58:05;;;;;;;0.70;0.32;;;22.30;44.40;;;;;;5112665;28;20044;-66
2022/04/14 04:00:32;;;;;;;0.82;0.30;;;22.30;44.30;;;;;;5112528;28;20376;-65
2022/04/14 04:03:03;;;;;;;2.05;0.30;;;22.40;44.20;;;;;;5112204;28;20502;-68
2022/04/14 04:05:32;;;;;;;1.08;0.47;;;22.40;44.00;;;;;;5112555;28;20054;-68
2022/04/14 04:07:57;;;;;;;0.68;0.30;;;22.50;43.90;;;;;;5112221;28;20487;-68
2022/04/14 04:10:23;;;;;;;1.00;0.32;;;22.40;43.80;;;;;;5112114;28;20042;-63
2022/04/14 04:12:49;;;;;;;0.98;0.40;;;22.40;43.80;;;;;;5112142;28;20051;-69
2022/04/14 04:15:14;;;;;;;0.93;0.40;;;22.40;43.80;;;;;;5113336;28;20047;-64
2022/04/14 04:17:40;;;;;;;0.63;0.40;;;22.40;43.80;;;;;;5113287;28;20036;-67
2022/04/14 04:20:06;;;;;;;1.95;0.40;;;22.40;43.90;;;;;;5112190;28;20032;-67
2022/04/14 04:22:33;;;;;;;1.35;0.40;;;22.40;43.80;;;;;;5111893;28;20058;-67
2022/04/14 04:24:59;;;;;;;1.02;0.30;;;22.40;43.80;;;;;;5111786;28;20096;-67
2022/04/14 04:27:26;;;;;;;0.73;0.30;;;22.50;43.80;;;;;;5113176;28;20031;-63
2022/04/14 04:29:51;;;;;;;1.20;0.50;;;22.50;43.70;;;;;;5111919;28;20114;-65
2022/04/14 04:32:17;;;;;;;1.52;0.40;;;22.60;43.60;;;;;;5111622;28;20148;-67
2022/04/14 04:34:43;;;;;;;1.35;0.32;;;22.70;43.50;;;;;;5111700;28;20031;-63
2022/04/14 04:37:11;;;;;;;0.73;0.32;;;22.70;43.40;;;;;;5112897;28;20047;-64
2022/04/14 04:39:37;;;;;;;1.67;0.40;;;22.70;43.30;;;;;;5111999;28;20043;-68
2022/04/14 04:42:03;;;;;;;1.40;0.30;;;22.70;43.20;;;;;;5111831;28;20034;-67
2022/04/14 04:44:28;;;;;;;1.73;0.45;;;22.80;43.10;;;;;;5111521;28;20410;-67
2022/04/14 04:46:57;;;;;;;0.50;0.22;;;22.80;43.00;;;;;;5111452;28;20089;-67
2022/04/14 04:49:23;;;;;;;0.90;0.30;;;22.90;43.00;;;;;;5111708;28;20142;-67
2022/04/14 04:51:48;;;;;;;1.17;0.40;;;22.90;42.90;;;;;;5112951;28;20457;-67
2022/04/14 04:54:14;;;;;;;1.08;0.30;;;22.90;42.90;;;;;;5111824;28;20049;-67
2022/04/14 04:56:39;;;;;;;0.68;0.32;;;22.90;42.80;;;;;;5111282;28;20456;-68
2022/04/14 04:59:05;;;;;;;1.55;0.60;;;23.00;42.70;;;;;;5111351;28;20058;-67
2022/04/14 05:01:31;;;;;;;0.95;0.30;;;23.00;42.60;;;;;;5111486;28;20391;-67
2022/04/14 05:03:56;;;;;;;0.93;0.38;;;23.00;42.60;;;;;;5111257;28;20104;-68
2022/04/14 05:06:22;;;;;;;1.10;0.50;;;23.10;42.60;;;;;;5111421;28;20379;-69
2022/04/14 05:08:48;;;;;;;1.05;0.40;;;23.10;42.40;;;;;;5111228;28;20391;-67
2022/04/14 05:11:17;;;;;;;0.85;0.40;;;23.10;42.40;;;;;;5112559;28;20039;-68
2022/04/14 05:13:42;;;;;;;0.80;0.45;;;23.20;42.40;;;;;;5111159;28;20075;-66
2022/04/14 05:16:09;;;;;;;0.90;0.30;;;23.20;42.30;;;;;;5112333;28;20078;-68
2022/04/14 05:18:34;;;;;;;0.73;0.32;;;23.20;42.20;;;;;;5111147;28;20058;-68
2022/04/14 05:21:00;;;;;;;0.63;0.22;;;23.20;42.10;;;;;;5112319;28;20479;-67
2022/04/14 05:23:26;;;;;;;0.57;0.30;;;23.20;42.10;;;;;;5112067;28;20047;-69
2022/04/14 05:25:51;;;;;;;1.08;0.38;;;23.30;42.00;;;;;;5111029;28;20070;-67
2022/04/14 05:28:17;;;;;;;1.17;0.50;;;23.40;42.00;;;;;;5111281;28;20036;-64
2022/04/14 05:30:43;;;;;;;0.85;0.40;;;23.30;41.90;;;;;;5111495;28;20612;-68
2022/04/14 05:33:10;;;;;;;1.20;0.73;;;23.40;41.90;;;;;;5110017;28;20422;-67
2022/04/14 05:35:38;;;;;;;2.20;0.50;;;23.40;41.80;;;;;;5110131;28;20050;-69
2022/04/14 05:38:05;;;;;;;3.55;0.50;;;23.40;42.00;;;;;;5110782;28;20398;-72
2022/04/14 05:40:31;;;;;;;2.10;0.57;;;23.30;42.00;;;;;;5110914;28;20118;-69
2022/04/14 05:42:56;;;;;;;2.80;0.82;;;23.30;42.20;;;;;;5110201;28;20103;-75
2022/04/14 05:45:22;;;;;;;1.85;0.77;;;23.30;42.40;;;;;;5109084;28;20501;-71
2022/04/14 05:47:48;;;;;;;3.63;0.90;;;23.20;42.60;;;;;;5109259;28;20499;-72
2022/04/14 05:50:14;;;;;;;3.03;0.80;;;23.10;42.60;;;;;;5109830;28;20075;-67
2022/04/14 05:52:39;;;;;;;2.85;0.40;;;23.10;42.70;;;;;;5108903;28;20036;-74
2022/04/14 05:55:05;;;;;;;4.90;2.40;;;23.00;42.80;;;;;;5107613;28;20394;-72
2022/04/14 05:57:31;;;;;;;3.45;3.05;;;22.90;42.90;;;;;;5108247;28;20176;-71
2022/04/14 05:59:57;;;;;;;3.75;1.35;;;22.90;43.00;;;;;;5106519;28;20385;-70
2022/04/14 06:02:24;;;;;;;4.35;2.10;;;22.80;43.10;;;;;;5105566;28;20052;-64
2022/04/14 06:04:50;;;;;;;5.65;1.73;;;22.80;43.20;;;;;;5105774;28;20044;-67
2022/04/14 06:07:15;;;;;;;2.75;1.75;;;22.80;43.30;;;;;;5081675;28;20040;-66
2022/04/14 06:09:41;;;;;;;4.40;2.45;;;22.80;43.30;;;;;;5101144;28;20527;-67
2022/04/14 06:12:07;;;;;;;4.55;3.83;;;22.80;43.30;;;;;;5105252;28;20043;-63
2022/04/14 06:14:33;;;;;;;4.80;3.33;;;22.70;43.20;;;;;;5101844;28;20047;-68
2022/04/14 06:16:59;;;;;;;4.13;3.47;;;22.80;43.30;;;;;;5106108;28;20039;-63
2022/04/14 06:19:25;;;;;;;4.75;3.70;;;22.70;43.30;;;;;;5109040;28;20039;-67
2022/04/14 06:21:51;;;;;;;5.55;4.05;;;22.70;43.30;;;;;;5108109;28;20035;-63
2022/04/14 06:24:16;;;;;;;7.60;4.35;;;22.70;43.40;;;;;;5109888;28;20044;-71
2022/04/14 06:26:43;;;;;;;7.05;3.78;;;22.70;43.50;;;;;;5107718;28;20044;-70
2022/04/14 06:29:08;;;;;;;5.60;3.30;;;22.70;43.60;;;;;;5108729;28;20102;-65
2022/04/14 06:31:35;;;;;;;3.60;3.30;;;22.70;43.70;;;;;;5108459;28;20126;-68
2022/04/14 06:34:02;;;;;;;2.80;2.35;;;22.70;43.80;;;;;;5108783;27;20043;-67
2022/04/14 06:36:27;;;;;;;4.10;2.38;;;22.70;43.80;;;;;;5097088;27;20044;-68
2022/04/14 06:38:53;;;;;;;5.05;4.13;;;22.70;44.00;;;;;;5088180;27;20390;-69
2022/04/14 06:41:19;;;;;;;4.65;4.22;;;22.70;44.10;;;;;;5089991;27;20123;-68
2022/04/14 06:43:49;;;;;;;12.43;5.75;;;22.70;44.20;;;;;;5091661;27;20036;-68
2022/04/14 06:46:15;;;;;;;12.25;6.70;;;22.60;44.60;;;;;;5093269;27;20844;-65
2022/04/14 06:48:41;;;;;;;8.63;4.65;;;22.70;44.80;;;;;;5098804;27;20062;-63
2022/04/14 06:51:06;;;;;;;8.45;3.83;;;22.60;44.70;;;;;;5092396;27;20525;-69
2022/04/14 06:53:32;;;;;;;7.43;2.95;;;22.70;45.00;;;;;;5091410;28;20032;-71
2022/04/14 06:55:58;;;;;;;6.82;2.97;;;22.70;45.10;;;;;;5092696;28;20048;-74
2022/04/14 06:58:23;;;;;;;2.80;2.15;;;22.80;45.10;;;;;;5090029;27;20051;-68
2022/04/14 07:00:49;;;;;;;6.78;2.28;;;22.90;45.10;;;;;;5088876;28;20063;-69
2022/04/14 07:03:15;;;;;;;9.88;4.70;;;23.00;45.30;;;;;;5088823;27;20048;-65
2022/04/14 07:05:41;;;;;;;10.10;3.47;;;23.00;45.30;;;;;;5089741;27;20035;-67
2022/04/14 07:08:07;;;;;;;5.22;2.30;;;23.00;45.30;;;;;;5095854;28;20043;-66
2022/04/14 07:10:32;;;;;;;4.68;2.60;;;23.00;45.40;;;;;;5092890;27;20051;-70
2022/04/14 07:12:58;;;;;;;8.52;2.63;;;23.10;45.50;;;;;;5097997;27;20130;-68
2022/04/14 07:15:24;;;;;;;6.78;2.13;;;23.10;45.70;;;;;;5091295;28;20147;-71
2022/04/14 07:17:49;;;;;;;6.88;2.15;;;23.10;45.80;;;;;;5105993;27;20230;-69
2022/04/14 07:20:15;;;;;;;7.22;1.40;;;23.10;45.80;;;;;;5089830;28;20040;-65
2022/04/14 07:25:24;;;;;;;5.22;1.25;;;23.10;45.90;;;;;;5053926;28;21110;-70
2022/04/14 07:27:50;;;;;;;2.90;1.35;;;23.10;46.10;;;;;;5025815;28;20111;-73
2022/04/14 07:30:16;;;;;;;6.47;2.30;;;23.00;46.20;;;;;;5032688;28;20046;-73
2022/04/14 07:32:43;;;;;;;6.93;1.67;;;22.90;46.20;;;;;;5032310;28;20029;-66
2022/04/14 07:35:09;;;;;;;5.93;1.45;;;22.80;46.20;;;;;;5033354;28;20048;-67
2022/04/14 07:37:36;;;;;;;6.03;1.65;;;22.80;46.40;;;;;;5032127;28;20053;-64
2022/04/14 07:40:03;;;;;;;3.55;1.20;;;22.70;46.60;;;;;;5030294;28;20580;-69
2022/04/14 07:42:33;;;;;;;6.32;1.58;;;22.70;46.70;;;;;;5046010;28;20060;-66
2022/04/14 07:44:59;;;;;;;4.03;1.52;;;22.70;46.80;;;;;;5031956;28;20042;-70
2022/04/14 07:47:25;;;;;;;6.07;1.13;;;22.60;47.00;;;;;;5030798;28;20539;-69
2022/04/14 07:49:51;;;;;;;5.57;1.13;;;22.50;47.10;;;;;;5031052;28;20029;-68
2022/04/14 07:52:16;;;;;;;3.85;0.95;;;22.50;47.30;;;;;;5029560;28;20128;-70
2022/04/14 07:54:42;;;;;;;6.95;1.50;;;22.40;47.40;;;;;;5031743;28;20051;-64
2022/04/14 07:57:08;;;;;;;4.72;1.23;;;22.40;47.70;;;;;;5031481;28;20068;-69
2022/04/14 07:59:33;;;;;;;4.50;1.15;;;22.30;47.90;;;;;;5047300;28;20072;-68
2022/04/14 08:02:00;;;;;;;6.90;1.08;;;22.20;48.10;;;;;;5031940;28;20048;-67
2022/04/14 08:04:27;;;;;;;4.20;1.45;;;22.10;48.30;;;;;;5031077;28;20065;-68
2022/04/14 08:06:56;;;;;;;7.50;1.15;;;22.10;48.60;;;;;;5030634;28;20382;-67
2022/04/14 08:09:21;;;;;;;3.15;1.08;;;22.00;48.70;;;;;;5030079;28;20128;-67
2022/04/14 08:11:47;;;;;;;4.82;0.70;;;22.00;48.90;;;;;;5031352;28;20033;-68
2022/04/14 08:14:13;;;;;;;4.30;1.30;;;21.90;49.00;;;;;;5029151;28;20068;-70
2022/04/14 08:16:39;;;;;;;4.85;0.75;;;21.80;49.00;;;;;;5031868;28;20037;-68
2022/04/14 08:19:05;;;;;;;5.32;1.25;;;21.80;49.20;;;;;;5029011;28;20128;-69
2022/04/14 08:21:30;;;;;;;5.45;1.15;;;21.70;49.40;;;;;;5030188;28;20041;-68
2022/04/14 08:23:57;;;;;;;3.78;1.00;;;21.70;49.70;;;;;;5029137;28;20049;-68
2022/04/14 08:26:23;;;;;;;3.38;1.50;;;21.60;49.70;;;;;;5032325;28;20144;-68
2022/04/14 08:28:49;;;;;;;3.65;1.88;;;21.60;49.80;;;;;;5032647;28;20796;-67
2022/04/14 08:31:16;;;;;;;4.20;0.90;;;21.60;50.00;;;;;;5032311;28;20071;-69
2022/04/14 08:33:43;;;;;;;3.03;0.75;;;21.60;50.10;;;;;;5029847;28;20491;-67
2022/04/14 08:36:12;;;;;;;2.53;0.98;;;21.50;50.20;;;;;;5023011;28;20489;-70
2022/04/14 08:38:40;;;;;;;5.45;1.42;;;21.50;50.30;;;;;;5020627;28;20065;-76
2022/04/14 08:41:08;;;;;;;5.80;1.58;;;21.50;50.30;;;;;;5019345;28;20049;-71
2022/04/14 08:43:35;;;;;;;12.15;2.05;;;21.50;50.20;;;;;;5019402;28;20402;-72
2022/04/14 08:46:03;;;;;;;5.97;1.92;;;21.50;50.30;;;;;;5017081;28;20037;-67
2022/04/14 08:48:29;;;;;;;5.50;1.45;;;21.50;50.20;;;;;;5017380;28;20112;-68
2022/04/14 08:50:55;;;;;;;8.95;3.05;;;21.40;50.30;;;;;;5020590;28;20037;-66
2022/04/14 08:53:24;;;;;;;6.88;2.92;;;21.40;50.40;;;;;;5035817;28;20124;-66
2022/04/14 08:55:50;;;;;;;7.28;2.45;;;21.40;50.50;;;;;;5020942;28;20045;-66
2022/04/14 08:58:19;;;;;;;7.57;1.83;;;21.40;50.50;;;;;;5020236;28;20045;-69
2022/04/14 09:00:48;;;;;;;9.18;1.65;;;21.30;50.40;;;;;;5018882;28;20347;-67
2022/04/14 09:03:15;;;;;;;6.38;1.77;;;21.30;50.30;;;;;;5019463;28;20164;-67
2022/04/14 09:05:42;;;;;;;4.80;1.63;;;21.30;50.20;;;;;;5019883;28;20045;-68
2022/04/14 09:08:08;;;;;;;4.53;1.00;;;21.30;50.10;;;;;;5023537;28;20041;-67
2022/04/14 09:10:35;;;;;;;3.65;1.23;;;21.30;50.00;;;;;;5020485;28;20036;-68
2022/04/14 09:13:01;;;;;;;2.90;1.25;;;21.30;49.90;;;;;;5020592;28;20046;-67
2022/04/14 09:15:27;;;;;;;3.58;1.02;;;21.30;49.80;;;;;;5023152;28;20060;-67
2022/04/14 09:17:57;;;;;;;5.03;1.33;;;21.30;49.70;;;;;;5013672;28;20090;-68
2022/04/14 09:26:11;;;;;;;3.42;0.57;;;21.30;49.60;;;;;;5133694;27;1164602;-67
2022/04/14 09:28:39;;;;;;;2.58;0.90;;;21.30;50.00;;;;;;5126684;27;20126;-67
2022/04/14 09:31:08;;;;;;;2.92;0.60;;;21.40;49.20;;;;;;5123229;27;20447;-68
2022/04/14 09:33:36;;;;;;;6.05;0.95;;;21.40;49.10;;;;;;5124072;27;20043;-67
2022/04/14 09:36:05;;;;;;;1.58;0.40;;;21.50;49.00;;;;;;5126295;27;20050;-67
2022/04/14 09:44:11;;;;;;;4.75;1.98;;;21.70;48.40;;;;;;5120894;27;1172203;-67
2022/04/14 09:46:42;;;;;;;4.53;1.27;;;21.90;48.30;;;;;;5121182;27;20043;-66
2022/04/14 09:49:10;;;;;;;4.35;1.05;;;22.00;48.10;;;;;;5117308;27;20160;-69
2022/04/14 09:51:38;;;;;;;3.80;1.38;;;22.10;48.10;;;;;;5136389;27;20644;-67
2022/04/14 09:54:27;;;;;;;4.15;1.48;;;22.10;47.90;;;;;;5116811;27;20057;-67
2022/04/14 09:56:55;;;;;;;3.08;0.95;;;22.20;47.90;;;;;;5110128;27;20365;-67
2022/04/14 09:59:23;;;;;;;4.40;0.95;;;22.30;47.70;;;;;;5113068;27;20381;-66
2022/04/14 10:02:09;;;;;;;4.72;0.85;;;22.40;47.60;;;;;;5136731;27;20050;-67
2022/04/14 10:04:37;;;;;;;2.97;1.33;;;22.40;47.50;;;;;;5118674;27;20062;-69
2022/04/14 10:09:46;;;;;;;2.00;0.70;;;22.60;47.40;;;;;;5129988;27;1165684;-68
2022/04/14 10:17:39;;;;;;;4.60;0.88;;;22.60;47.20;;;;;;5131162;27;1170915;-72
2022/04/14 10:20:07;;;;;;;2.08;0.70;;;22.80;46.90;;;;;;5139247;27;20482;-69
2022/04/14 10:22:34;;;;;;;3.53;0.98;;;22.80;46.90;;;;;;5136101;27;20402;-70
2022/04/14 10:25:01;;;;;;;2.88;0.65;;;22.80;46.90;;;;;;5117685;27;20035;-70
2022/04/14 10:27:36;;;;;;;5.75;1.38;;;22.80;47.00;;;;;;5117865;27;20074;-70
2022/04/14 10:30:03;;;;;;;4.00;2.05;;;22.80;46.90;;;;;;5121220;27;20049;-69
2022/04/14 10:32:30;;;;;;;5.50;3.17;;;22.80;46.60;;;;;;5113902;27;20047;-69
2022/04/14 10:35:01;;;;;;;6.63;3.97;;;22.70;46.30;;;;;;5119750;27;20050;-68
2022/04/14 10:37:38;;;;;;;4.05;2.17;;;22.60;45.70;;;;;;5134604;27;20074;-73
2022/04/14 10:40:08;;;;;;;9.05;1.98;;;22.50;45.80;;;;;;5124782;27;20043;-77
2022/04/14 10:42:34;;;;;;;4.32;1.67;;;22.50;46.10;;;;;;5111909;27;20061;-72
2022/04/14 10:45:15;;;;;;;3.63;1.80;;;22.50;46.10;;;;;;5131693;27;20060;-79
2022/04/14 10:50:33;;;;;;;9.50;2.33;;;22.50;46.30;;;;;;5095613;27;20491;-69
2022/04/14 10:55:58;;;;;;;4.60;0.95;;;22.40;46.70;;;;;;5071520;27;20777;-67
2022/04/14 11:01:12;;;;;;;3.35;0.80;;;22.40;46.90;;;;;;5102749;27;21175;-67
2022/04/14 11:23:08;;;;;;;10.30;0.70;;;22.40;46.80;;;;;;5081064;27;20892;-71
2022/04/14 11:31:23;;;;;;;3.35;0.85;;;22.30;47.70;;;;;;5106861;27;20994;-73
2022/04/14 11:33:57;;;;;;;5.53;0.90;;;22.30;48.40;;;;;;5120423;27;20044;-72
2022/04/14 11:36:27;;;;;;;4.45;0.60;;;22.30;48.40;;;;;;5113591;27;20051;-77
2022/04/14 11:41:50;;;;;;;6.22;0.65;;;22.40;48.50;;;;;;5056590;27;21015;-72
2022/04/14 11:46:59;;;;;;;3.72;0.77;;;22.40;48.70;;;;;;5054044;27;20469;-70
2022/04/14 11:49:28;;;;;;;6.93;1.38;;;22.50;48.80;;;;;;5053642;28;20036;-70
2022/04/14 11:51:56;;;;;;;7.93;1.10;;;22.50;48.70;;;;;;5045502;28;20164;-73
2022/04/14 11:54:35;;;;;;;3.22;0.68;;;22.50;48.80;;;;;;5048969;28;20774;-70
2022/04/14 11:57:09;;;;;;;7.13;0.98;;;22.50;48.80;;;;;;5049423;28;20052;-69
2022/04/14 11:59:37;;;;;;;2.60;0.60;;;22.50;48.50;;;;;;5051766;28;20087;-68
2022/04/14 12:02:07;;;;;;;3.53;1.00;;;22.50;48.50;;;;;;5059438;28;20060;-68
2022/04/14 12:04:35;;;;;;;5.00;0.45;;;22.50;48.50;;;;;;5054084;28;20078;-69
2022/04/14 12:07:00;;;;;;;5.15;0.80;;;22.50;48.50;;;;;;5089510;28;20057;-70
2022/04/14 12:09:26;;;;;;;9.10;1.13;;;22.50;48.40;;;;;;5056190;28;20072;-69
2022/04/14 12:11:52;;;;;;;9.50;1.60;;;22.60;48.50;;;;;;5092366;27;20040;-69
2022/04/14 12:14:19;;;;;;;7.20;1.17;;;22.60;48.50;;;;;;5050025;28;20136;-70
2022/04/14 12:16:48;;;;;;;5.18;0.80;;;22.50;48.40;;;;;;5049360;28;20119;-68
2022/04/14 12:19:14;;;;;;;3.20;0.60;;;22.50;48.10;;;;;;5061669;28;20446;-69
2022/04/14 12:21:39;;;;;;;5.45;1.13;;;22.60;48.00;;;;;;5049016;28;20041;-72
2022/04/14 12:24:05;;;;;;;12.18;1.85;;;22.50;48.10;;;;;;5056032;28;20118;-70
2022/04/14 12:26:35;;;;;;;4.93;0.50;;;22.60;48.30;;;;;;5088030;28;20045;-69
2022/04/14 12:29:01;;;;;;;3.97;0.63;;;22.60;48.60;;;;;;5055003;28;20045;-68
2022/04/14 12:31:29;;;;;;;8.70;0.93;;;22.60;48.50;;;;;;5053637;28;20079;-69
2022/04/14 12:33:57;;;;;;;6.40;0.60;;;22.60;48.50;;;;;;5081442;28;20056;-68
2022/04/14 12:36:33;;;;;;;7.72;1.13;;;22.60;48.50;;;;;;5078130;28;20052;-68
2022/04/14 12:38:59;;;;;;;4.40;1.00;;;22.70;48.20;;;;;;5030622;28;20726;-67
2022/04/14 12:41:34;;;;;;;5.30;1.15;;;22.60;46.70;;;;;;5091003;28;20072;-68
2022/04/14 12:44:00;;;;;;;12.20;0.80;;;22.50;45.70;;;;;;5061789;28;20110;-66
2022/04/14 12:46:27;;;;;;;1.38;0.50;;;22.50;45.50;;;;;;5052976;28;20489;-66
2022/04/14 12:49:10;;;;;;;4.55;0.52;;;22.50;45.30;;;;;;5057529;28;20121;-66
2022/04/14 12:51:41;;;;;;;2.60;0.80;;;22.40;45.20;;;;;;5068713;28;20083;-68
2022/04/14 12:54:07;;;;;;;;;;;22.40;45.10;;;;;;5051599;28;20040;-65
2022/04/14 12:56:36;;;;;;;5.32;0.80;;;22.50;45.30;;;;;;5050689;28;19920;-69
2022/04/14 13:04:43;;;;;;;3.22;0.95;;;22.50;44.80;;;;;;5102555;27;21118;-69
2022/04/14 13:07:13;;;;;;;4.70;0.60;;;22.40;44.80;;;;;;5105743;28;20184;-68
2022/04/14 13:09:58;;;;;;;7.00;1.07;;;22.50;45.10;;;;;;5076641;28;20396;-67
2022/04/14 13:12:43;;;;;;;8.27;0.70;;;22.40;45.00;;;;;;5091942;28;20686;-68
2022/04/14 13:15:13;;;;;;;3.60;0.60;;;22.40;44.90;;;;;;5082151;28;20106;-69
2022/04/14 13:17:39;;;;;;;3.88;0.88;;;22.40;44.90;;;;;;5093112;28;20552;-69
2022/04/14 13:22:58;;;;;;;2.58;0.40;;;22.40;44.80;;;;;;5081365;27;20385;-69
2022/04/14 13:25:23;;;;;;;6.95;0.70;;;22.40;45.00;;;;;;5079656;28;20113;-67
2022/04/14 13:27:51;;;;;;;3.50;0.30;;;22.50;45.10;;;;;;5079754;28;20127;-70
2022/04/14 13:30:16;;;;;;;5.13;0.55;;;22.40;45.10;;;;;;5079923;28;20036;-73
2022/04/14 13:32:42;;;;;;;4.00;1.00;;;22.40;45.30;;;;;;5081216;28;20048;-72
2022/04/14 13:35:08;;;;;;;4.63;0.73;;;22.40;45.40;;;;;;5082040;28;20093;-69
2022/04/14 13:37:35;;;;;;;2.85;0.43;;;22.40;45.40;;;;;;5082456;28;20036;-70
2022/04/14 13:40:04;;;;;;;5.10;0.90;;;22.40;45.30;;;;;;5080505;28;20044;-71
2022/04/14 13:42:31;;;;;;;2.60;0.38;;;22.40;44.90;;;;;;5081521;28;20043;-72
2022/04/14 13:44:57;;;;;;;3.60;0.40;;;22.50;45.20;;;;;;5080541;28;20090;-68
2022/04/14 13:47:24;;;;;;;1.38;0.45;;;22.50;44.80;;;;;;5080984;28;20043;-68
2022/04/14 13:49:52;;;;;;;5.80;0.90;;;22.50;44.30;;;;;;5080369;28;20036;-69
2022/04/14 13:52:18;;;;;;;2.72;0.70;;;22.40;43.80;;;;;;5079657;28;20052;-69
2022/04/14 13:54:43;;;;;;;4.47;0.63;;;22.40;43.70;;;;;;5079708;28;20051;-69
2022/04/14 13:57:09;;;;;;;2.10;0.40;;;22.40;43.80;;;;;;5079147;28;20042;-66
2022/04/14 13:59:35;;;;;;;3.20;0.50;;;22.40;43.90;;;;;;5080553;28;20721;-71